Terminal Aerodrome Forecast
Issued by NWS

Home | Current Version | Previous Version | Text Only | Print | Product List | Glossary On
Versions: 1 2 3 4 5 6 7 8 9 10 11 12 13 14 15 16 17 18 19 20
000
FTUS42 KMHX 261400 AAA
TAFPGV
TAF AMD
KPGV 261401Z 2614/2712 02012G20KT 4SM -RA OVC008
     FM261700 32012G17KT P6SM VCSH SCT007 OVC020
     FM262300 32004KT P6SM SCT025 BKN050
      AMD LTD TO CLD VIS AND WIND=

USA.gov is the U.S. government's official web portal to all federal, state and local government web resources and services.